createdAt,value
2023-02-17T00:02:12.860Z,99737.50
2023-02-17T00:04:39.777Z,99754.13
2023-02-17T00:07:06.671Z,99749.16
2023-02-17T00:09:33.704Z,99740.94
2023-02-17T00:12:00.556Z,99740.91
2023-02-17T00:14:27.413Z,99742.94
2023-02-17T00:16:54.320Z,99747.81
2023-02-17T00:19:22.355Z,99760.81
2023-02-17T00:21:51.435Z,99755.44
2023-02-17T00:24:18.364Z,99763.31
2023-02-17T00:26:45.364Z,99744.63
2023-02-17T00:29:12.309Z,99746.16
2023-02-17T00:31:39.870Z,99755.59
2023-02-17T00:34:06.955Z,99737.09
2023-02-17T00:36:33.886Z,99719.72
2023-02-17T00:39:01.380Z,99737.63
2023-02-17T00:41:29.100Z,99726.59
2023-02-17T00:43:57.775Z,99734.50
2023-02-17T00:46:26.005Z,99743.50
2023-02-17T00:48:53.761Z,99740.63
2023-02-17T00:51:21.748Z,99721.41
2023-02-17T00:53:48.824Z,99726.78
2023-02-17T00:56:15.925Z,99728.94
2023-02-17T00:58:44.279Z,99715.00
2023-02-17T01:01:12.120Z,99752.16
2023-02-17T01:03:41.196Z,99722.91
2023-02-17T01:06:10.953Z,99711.97
2023-02-17T01:08:37.846Z,99718.56
2023-02-17T01:11:05.115Z,99705.22
2023-02-17T01:13:32.327Z,99709.28
2023-02-17T01:15:59.693Z,99738.59
2023-02-17T01:18:26.597Z,99716.53
2023-02-17T01:20:53.473Z,99702.47
2023-02-17T01:23:20.690Z,99717.09
2023-02-17T01:25:48.540Z,99725.28
2023-02-17T01:28:18.491Z,99723.50
2023-02-17T01:30:47.382Z,99672.28
2023-02-17T01:33:14.528Z,99729.22
2023-02-17T01:35:41.610Z,99712.81
2023-02-17T01:38:08.613Z,99705.53
2023-02-17T01:40:35.822Z,99699.13
2023-02-17T01:43:03.928Z,99682.59
2023-02-17T01:45:41.618Z,99725.56
2023-02-17T01:48:16.957Z,99737.56
2023-02-17T01:51:14.143Z,99741.41
2023-02-17T01:53:50.178Z,99718.31
2023-02-17T01:56:18.076Z,99747.50
2023-02-17T01:58:52.034Z,99730.03
2023-02-17T02:01:20.378Z,99747.97
2023-02-17T02:03:48.257Z,99741.53
2023-02-17T02:06:20.672Z,99747.94
2023-02-17T02:09:03.487Z,99751.78
2023-02-17T02:11:30.715Z,99756.19
2023-02-17T02:13:59.168Z,99756.88
2023-02-17T02:16:35.343Z,99773.53
2023-02-17T02:19:24.102Z,99780.16
2023-02-17T02:22:03.211Z,99765.47
2023-02-17T02:24:46.366Z,99770.47
2023-02-17T02:27:25.937Z,99738.63
2023-02-17T02:30:02.656Z,99759.81
2023-02-17T02:32:48.688Z,99764.22
2023-02-17T02:35:50.459Z,99737.22
2023-02-17T02:38:43.405Z,99753.50
2023-02-17T02:41:24.109Z,99758.22
2023-02-17T02:43:52.509Z,99741.97
2023-02-17T02:46:19.671Z,99757.88
2023-02-17T02:48:47.941Z,99782.81
2023-02-17T02:51:14.812Z,99771.16
2023-02-17T02:54:03.787Z,99787.66
2023-02-17T02:57:03.198Z,99775.59
2023-02-17T02:59:32.104Z,99784.66
2023-02-17T03:02:17.100Z,99789.41
2023-02-17T03:05:00.848Z,99757.97
2023-02-17T03:07:38.206Z,99754.13
2023-02-17T03:10:07.711Z,99754.88
2023-02-17T03:12:38.143Z,99742.75
2023-02-17T03:15:14.378Z,99761.03
2023-02-17T03:17:41.398Z,99757.66
2023-02-17T03:20:09.610Z,99781.44
2023-02-17T03:22:45.024Z,99769.25
2023-02-17T03:25:15.028Z,99759.41
2023-02-17T03:27:43.269Z,99741.81
2023-02-17T03:30:11.549Z,99752.28
2023-02-17T03:32:38.564Z,99769.78
2023-02-17T03:35:06.185Z,99745.75
2023-02-17T03:37:33.259Z,99761.59
2023-02-17T03:40:00.465Z,99768.59
2023-02-17T03:42:27.350Z,99755.72
2023-02-17T03:44:54.337Z,99767.94
2023-02-17T03:47:21.262Z,99760.72
2023-02-17T03:49:48.102Z,99759.34
2023-02-17T03:52:15.178Z,99753.97
2023-02-17T03:54:42.128Z,99767.00
2023-02-17T03:57:09.062Z,99749.44
2023-02-17T03:59:36.584Z,99768.47
2023-02-17T04:02:04.122Z,99762.69
2023-02-17T04:04:31.025Z,99768.75
2023-02-17T04:06:58.055Z,99767.22
2023-02-17T04:09:24.954Z,99748.66
2023-02-17T04:11:51.842Z,99751.81
2023-02-17T04:14:18.825Z,99793.31
2023-02-17T04:16:45.777Z,99766.66
2023-02-17T04:19:12.699Z,99777.66
2023-02-17T04:21:39.662Z,99769.41
2023-02-17T04:24:06.721Z,99760.53
2023-02-17T04:26:33.731Z,99775.78
2023-02-17T04:29:00.710Z,99776.25
2023-02-17T04:31:27.652Z,99779.47
2023-02-17T04:33:54.593Z,99804.81
2023-02-17T04:36:21.629Z,99774.19
2023-02-17T04:38:48.970Z,99794.25
2023-02-17T04:41:15.873Z,99790.84
2023-02-17T04:43:42.846Z,99759.94
2023-02-17T04:46:10.075Z,99787.34
2023-02-17T04:48:37.419Z,99800.91
2023-02-17T04:51:05.018Z,99760.53
2023-02-17T04:53:32.367Z,99750.41
2023-02-17T04:55:59.446Z,99767.66
2023-02-17T04:58:26.422Z,99755.97
2023-02-17T05:00:53.363Z,99758.06
2023-02-17T05:03:20.337Z,99770.22
2023-02-17T05:05:47.259Z,99770.59
2023-02-17T05:08:14.098Z,99775.56
2023-02-17T05:10:41.049Z,99752.47
2023-02-17T05:13:08.244Z,99780.09
2023-02-17T05:15:35.524Z,99775.59
2023-02-17T05:18:02.874Z,99751.63
2023-02-17T05:20:29.901Z,99790.19
2023-02-17T05:22:56.756Z,99775.06
2023-02-17T05:25:23.683Z,99782.03
2023-02-17T05:27:50.655Z,99769.66
2023-02-17T05:30:17.640Z,99793.41
2023-02-17T05:32:44.590Z,99796.44
2023-02-17T05:35:11.715Z,99813.63
2023-02-17T05:37:38.659Z,99768.88
2023-02-17T05:40:06.501Z,99790.66
2023-02-17T05:42:33.458Z,99778.56
2023-02-17T05:45:00.437Z,99790.53
2023-02-17T05:47:27.754Z,99781.75
2023-02-17T05:49:54.822Z,99778.16
2023-02-17T05:52:23.143Z,99773.69
2023-02-17T05:54:50.001Z,99795.56
2023-02-17T05:57:16.926Z,99794.13
2023-02-17T05:59:43.907Z,99782.19
2023-02-17T06:02:10.939Z,99781.50
2023-02-17T06:04:38.037Z,99784.50
2023-02-17T06:07:04.937Z,99780.53
2023-02-17T06:09:31.852Z,99785.91
2023-02-17T06:11:58.765Z,99809.03
2023-02-17T06:14:25.730Z,99813.88
2023-02-17T06:16:52.606Z,99803.47
2023-02-17T06:19:19.595Z,99814.47
2023-02-17T06:21:46.633Z,99773.88
2023-02-17T06:24:13.506Z,99796.78
2023-02-17T06:26:40.403Z,99800.56
2023-02-17T06:29:07.584Z,99807.75
2023-02-17T06:31:35.045Z,99826.41
2023-02-17T06:34:02.028Z,99818.63
2023-02-17T06:36:28.871Z,99827.09
2023-02-17T06:38:55.701Z,99805.50
2023-02-17T06:41:22.635Z,99803.94
2023-02-17T06:43:49.510Z,99810.13
2023-02-17T06:46:16.437Z,99802.19
2023-02-17T06:48:43.444Z,99822.38
2023-02-17T06:51:10.381Z,99821.72
2023-02-17T06:53:37.246Z,99780.91
2023-02-17T06:56:04.663Z,99812.81
2023-02-17T06:58:31.827Z,99823.16
2023-02-17T07:00:59.034Z,99820.56
2023-02-17T07:03:26.187Z,99832.09
2023-02-17T07:05:57.414Z,99821.88
2023-02-17T07:08:24.964Z,99811.22
2023-02-17T07:10:51.945Z,99825.63
2023-02-17T07:13:18.959Z,99823.59
2023-02-17T07:15:45.874Z,99828.88
2023-02-17T07:18:12.919Z,99838.47
2023-02-17T07:20:39.816Z,99823.72
2023-02-17T07:23:06.960Z,99825.16
2023-02-17T07:25:33.854Z,99834.81
2023-02-17T07:28:00.833Z,99831.44
2023-02-17T07:30:27.715Z,99823.16
2023-02-17T07:32:54.846Z,99828.44
2023-02-17T07:35:21.956Z,99810.34
2023-02-17T07:37:48.917Z,99819.16
2023-02-17T07:40:15.814Z,99822.56
2023-02-17T07:42:42.890Z,99833.44
2023-02-17T07:45:09.889Z,99822.00
2023-02-17T07:47:36.893Z,99808.91
2023-02-17T07:50:03.770Z,99824.94
2023-02-17T07:52:30.796Z,99815.94
2023-02-17T07:54:57.729Z,99794.59
2023-02-17T07:57:24.687Z,99810.56
2023-02-17T07:59:51.673Z,99830.56
2023-02-17T08:02:19.115Z,99837.09
2023-02-17T08:04:46.026Z,99816.53
2023-02-17T08:07:13.343Z,99828.31
2023-02-17T08:09:40.302Z,99813.56
2023-02-17T08:12:15.386Z,99787.84
2023-02-17T08:14:42.401Z,99799.13
2023-02-17T08:17:09.359Z,99810.03
2023-02-17T08:19:47.604Z,99807.38
2023-02-17T08:22:17.476Z,99805.84
2023-02-17T08:24:45.025Z,99793.63
2023-02-17T08:27:12.103Z,99797.41
2023-02-17T08:29:39.107Z,99787.38
2023-02-17T08:32:06.181Z,99819.38
2023-02-17T08:34:33.233Z,99810.78
2023-02-17T08:37:04.795Z,99809.69
2023-02-17T08:39:33.364Z,99813.63
2023-02-17T08:42:00.969Z,99792.88
2023-02-17T08:44:28.035Z,99811.50
2023-02-17T08:46:55.910Z,99838.38
2023-02-17T08:49:25.625Z,99808.53
2023-02-17T08:51:52.770Z,99821.72
2023-02-17T08:54:20.046Z,99810.78
2023-02-17T08:56:46.979Z,99817.50
2023-02-17T08:59:13.972Z,99815.41
2023-02-17T09:01:42.789Z,99826.78
2023-02-17T09:04:11.982Z,99844.81
2023-02-17T09:06:51.161Z,99816.53
2023-02-17T09:09:21.180Z,99814.13
2023-02-17T09:11:48.884Z,99831.16
2023-02-17T09:14:16.058Z,99809.94
2023-02-17T09:16:42.943Z,99815.09
2023-02-17T09:19:09.963Z,99839.00
2023-02-17T09:21:36.979Z,99818.31
2023-02-17T09:24:04.148Z,99819.34
2023-02-17T09:26:31.045Z,99812.34
2023-02-17T09:28:58.068Z,99823.78
2023-02-17T09:31:26.659Z,99805.50
2023-02-17T09:33:54.499Z,99814.06
2023-02-17T09:36:28.367Z,99820.88
2023-02-17T09:38:56.791Z,99811.41
2023-02-17T09:41:39.308Z,99802.56
2023-02-17T09:44:13.812Z,99840.94
2023-02-17T09:47:00.664Z,99789.94
2023-02-17T09:49:35.380Z,99834.91
2023-02-17T09:52:17.173Z,99801.16
2023-02-17T09:55:08.186Z,99814.97
2023-02-17T09:57:43.897Z,99811.91
2023-02-17T10:00:16.284Z,99800.09
2023-02-17T10:02:55.676Z,99809.41
2023-02-17T10:05:28.422Z,99777.28
2023-02-17T10:08:05.467Z,99806.81
2023-02-17T10:10:41.910Z,99798.16
2023-02-17T10:13:09.764Z,99805.28
2023-02-17T10:15:43.240Z,99778.72
2023-02-17T10:18:28.243Z,99803.34
2023-02-17T10:21:17.434Z,99791.72
2023-02-17T10:23:44.679Z,99794.75
2023-02-17T10:26:32.951Z,99805.50
2023-02-17T10:29:26.117Z,99791.63
2023-02-17T10:32:27.302Z,99807.22
2023-02-17T10:35:15.889Z,99815.31
2023-02-17T10:37:56.277Z,99808.28
2023-02-17T10:40:29.221Z,99775.66
2023-02-17T10:43:01.110Z,99800.84
2023-02-17T10:45:33.661Z,99807.75
2023-02-17T10:48:08.876Z,99781.97
2023-02-17T10:50:38.282Z,99790.53
2023-02-17T10:53:25.858Z,99774.47
2023-02-17T10:56:12.231Z,99763.94
2023-02-17T10:58:54.322Z,99776.88
2023-02-17T11:01:21.507Z,99792.03
2023-02-17T11:03:58.844Z,99780.44
2023-02-17T11:06:25.987Z,99766.22
2023-02-17T11:08:59.886Z,99791.81
2023-02-17T11:11:32.307Z,99773.06
2023-02-17T11:14:08.358Z,99787.38
2023-02-17T11:16:37.670Z,99754.22
2023-02-17T11:19:07.218Z,99765.50
2023-02-17T11:21:34.310Z,99784.16
2023-02-17T11:24:06.649Z,99760.44
2023-02-17T11:26:35.581Z,99773.81
2023-02-17T11:29:21.919Z,99767.03
2023-02-17T11:32:01.513Z,99777.81
2023-02-17T11:34:30.413Z,99765.66
2023-02-17T11:37:03.519Z,99769.38
2023-02-17T11:39:30.740Z,99757.03
2023-02-17T11:41:57.592Z,99762.78
2023-02-17T11:44:28.712Z,99754.28
2023-02-17T11:47:23.624Z,99772.16
2023-02-17T11:50:10.319Z,99774.81
2023-02-17T11:53:12.828Z,99757.84
2023-02-17T11:56:09.946Z,99767.31
2023-02-17T11:59:18.978Z,99762.22
2023-02-17T12:02:23.420Z,99754.88
2023-02-17T12:04:53.316Z,99769.13
2023-02-17T12:07:20.162Z,99786.69
2023-02-17T12:10:03.686Z,99751.78
2023-02-17T12:13:03.955Z,99754.31
2023-02-17T12:15:49.098Z,99766.47
2023-02-17T12:18:49.316Z,99759.44
2023-02-17T12:21:29.197Z,99740.63
2023-02-17T12:24:33.474Z,99777.09
2023-02-17T12:27:15.668Z,99763.25
2023-02-17T12:30:10.748Z,99763.09
2023-02-17T12:32:56.942Z,99767.56
2023-02-17T12:35:31.558Z,99749.09
2023-02-17T12:38:11.226Z,99750.94
2023-02-17T12:40:43.201Z,99778.19
2023-02-17T12:43:31.208Z,99772.03
2023-02-17T12:46:01.350Z,99767.31
2023-02-17T12:48:40.026Z,99768.88
2023-02-17T12:51:12.168Z,99756.88
2023-02-17T12:53:48.076Z,99767.84
2023-02-17T12:56:27.372Z,99753.84
2023-02-17T12:58:57.013Z,99772.50
2023-02-17T13:01:30.556Z,99772.22
2023-02-17T13:04:00.341Z,99754.66
2023-02-17T13:06:36.694Z,99782.56
2023-02-17T13:09:06.313Z,99757.72
2023-02-17T13:11:35.738Z,99747.75
2023-02-17T13:14:50.617Z,99788.72
2023-02-17T13:17:32.680Z,99760.75
2023-02-17T13:20:12.060Z,99771.91
2023-02-17T13:22:41.604Z,99765.66
2023-02-17T13:25:33.044Z,99779.97
2023-02-17T13:28:01.870Z,99777.94
2023-02-17T13:30:41.166Z,99723.16
2023-02-17T13:33:30.902Z,99771.63
2023-02-17T13:35:57.989Z,99755.84
2023-02-17T13:38:33.094Z,99766.03
2023-02-17T13:41:03.136Z,99753.09
2023-02-17T13:43:31.378Z,99781.81
2023-02-17T13:46:03.083Z,99754.38
2023-02-17T13:48:35.371Z,99755.81
2023-02-17T13:51:07.748Z,99752.22
2023-02-17T13:53:37.838Z,99773.56
2023-02-17T13:56:25.039Z,99773.28
2023-02-17T13:58:52.063Z,99771.44
2023-02-17T14:01:22.998Z,99780.91
2023-02-17T14:03:55.854Z,99766.72
2023-02-17T14:06:38.780Z,99763.81
2023-02-17T14:09:32.688Z,99769.81
2023-02-17T14:12:03.222Z,99761.88
2023-02-17T14:14:35.187Z,99731.25
2023-02-17T14:17:05.827Z,99742.19
2023-02-17T14:19:44.489Z,99752.75
2023-02-17T14:22:30.769Z,99742.84
2023-02-17T14:25:07.410Z,99741.94
2023-02-17T14:27:48.794Z,99752.69
2023-02-17T14:30:27.208Z,99738.69
2023-02-17T14:33:15.742Z,99777.78
2023-02-17T14:35:53.251Z,99751.69
2023-02-17T14:38:23.018Z,99758.25
2023-02-17T14:40:50.273Z,99761.81
2023-02-17T14:43:17.305Z,99766.78
2023-02-17T14:45:44.302Z,99747.69
2023-02-17T14:48:11.433Z,99786.88
2023-02-17T14:50:38.429Z,99782.00
2023-02-17T14:53:30.880Z,99801.28
2023-02-17T14:56:10.658Z,99766.31
2023-02-17T14:58:37.726Z,99764.97
2023-02-17T15:01:04.884Z,99758.69
2023-02-17T15:03:32.636Z,99784.94
2023-02-17T15:06:01.376Z,99791.91
2023-02-17T15:08:33.169Z,99772.94
2023-02-17T15:11:02.317Z,99794.19
2023-02-17T15:13:29.384Z,99763.13
2023-02-17T15:15:56.525Z,99776.50
2023-02-17T15:18:23.517Z,99762.53
2023-02-17T15:20:51.899Z,99785.75
2023-02-17T15:23:22.082Z,99776.06
2023-02-17T15:25:49.504Z,99812.16
2023-02-17T15:28:18.821Z,99788.28
2023-02-17T15:30:50.734Z,99792.28
2023-02-17T15:33:18.385Z,99788.34
2023-02-17T15:35:46.286Z,99790.75
2023-02-17T15:38:14.274Z,99787.41
2023-02-17T15:40:41.736Z,99790.38
2023-02-17T15:43:15.198Z,99760.84
2023-02-17T15:45:42.313Z,99764.84
2023-02-17T15:48:19.308Z,99762.63
2023-02-17T15:50:46.374Z,99775.59
2023-02-17T15:53:13.338Z,99774.31
2023-02-17T15:55:41.330Z,99817.31
2023-02-17T15:58:15.957Z,99788.31
2023-02-17T16:00:44.262Z,99794.88
2023-02-17T16:03:13.011Z,99787.13
2023-02-17T16:05:41.294Z,99780.78
2023-02-17T16:08:09.710Z,99784.06
2023-02-17T16:10:37.314Z,99791.91
2023-02-17T16:13:04.447Z,99783.84
2023-02-17T16:15:33.197Z,99788.06
2023-02-17T16:18:00.253Z,99809.03
2023-02-17T16:20:30.453Z,99784.53
2023-02-17T16:22:57.347Z,99796.84
2023-02-17T16:25:25.339Z,99797.22
2023-02-17T16:27:53.554Z,99793.97
2023-02-17T16:30:23.400Z,99788.88
2023-02-17T16:32:50.913Z,99759.00
2023-02-17T16:35:24.461Z,99785.81
2023-02-17T16:38:02.501Z,99748.91
2023-02-17T16:40:32.052Z,99787.34
2023-02-17T16:42:59.043Z,99748.19
2023-02-17T16:45:29.232Z,99754.91
2023-02-17T16:47:58.959Z,99775.84
2023-02-17T16:50:31.480Z,99758.06
2023-02-17T16:53:02.144Z,99749.53
2023-02-17T16:55:31.984Z,99741.06
2023-02-17T16:57:59.311Z,99776.47
2023-02-17T17:00:29.638Z,99774.13
2023-02-17T17:02:57.962Z,99769.44
2023-02-17T17:05:27.527Z,99771.06
2023-02-17T17:07:55.599Z,99766.16
2023-02-17T17:10:31.181Z,99776.81
2023-02-17T17:12:58.602Z,99763.28
2023-02-17T17:15:25.806Z,99771.91
2023-02-17T17:17:56.785Z,99776.53
2023-02-17T17:20:27.386Z,99753.59
2023-02-17T17:22:54.965Z,99758.31
2023-02-17T17:25:22.132Z,99762.97
2023-02-17T17:27:50.057Z,99752.78
2023-02-17T17:30:21.237Z,99756.94
2023-02-17T17:32:48.785Z,99736.88
2023-02-17T17:35:16.017Z,99726.91
2023-02-17T17:37:43.827Z,99745.06
2023-02-17T17:40:24.970Z,99737.72
2023-02-17T17:42:52.532Z,99746.16
2023-02-17T17:45:20.041Z,99731.91
2023-02-17T17:47:47.037Z,99747.81
2023-02-17T17:50:23.149Z,99757.06
2023-02-17T17:52:51.655Z,99736.25
2023-02-17T17:55:18.608Z,99755.03
2023-02-17T17:57:45.637Z,99743.50
2023-02-17T18:00:15.115Z,99758.84
2023-02-17T18:02:42.280Z,99727.81
2023-02-17T18:05:09.574Z,99737.47
2023-02-17T18:07:38.580Z,99760.31
2023-02-17T18:10:10.150Z,99734.63
2023-02-17T18:12:38.502Z,99752.66
2023-02-17T18:15:07.881Z,99739.59
2023-02-17T18:17:39.344Z,99737.16
2023-02-17T18:20:10.704Z,99744.38
2023-02-17T18:22:39.029Z,99707.28
2023-02-17T18:25:07.453Z,99713.22
2023-02-17T18:27:43.901Z,99728.06
2023-02-17T18:30:13.459Z,99718.72
2023-02-17T18:32:41.265Z,99734.75
2023-02-17T18:35:09.024Z,99750.59
2023-02-17T18:37:36.297Z,99734.72
2023-02-17T18:40:04.420Z,99727.16
2023-02-17T18:42:31.793Z,99743.91
2023-02-17T18:44:58.669Z,99721.09
2023-02-17T18:47:26.839Z,99720.56
2023-02-17T18:49:53.820Z,99720.13
2023-02-17T18:52:20.859Z,99759.56
2023-02-17T18:54:47.840Z,99742.75
2023-02-17T18:57:14.677Z,99739.97
2023-02-17T18:59:41.630Z,99730.53
2023-02-17T19:02:10.768Z,99700.75
2023-02-17T19:04:38.214Z,99722.78
2023-02-17T19:07:05.599Z,99700.75
2023-02-17T19:09:37.775Z,99722.22
2023-02-17T19:12:06.305Z,99711.63
2023-02-17T19:14:33.775Z,99717.06
2023-02-17T19:17:00.788Z,99705.53
2023-02-17T19:19:27.782Z,99708.53
2023-02-17T19:21:54.789Z,99718.22
2023-02-17T19:24:21.725Z,99723.03
2023-02-17T19:26:48.991Z,99724.88
2023-02-17T19:29:15.912Z,99733.63
2023-02-17T19:31:44.253Z,99704.50
2023-02-17T19:34:11.369Z,99711.31
2023-02-17T19:36:38.338Z,99708.03
2023-02-17T19:39:05.293Z,99719.28
2023-02-17T19:41:35.703Z,99719.09
2023-02-17T19:44:03.236Z,99730.88
2023-02-17T19:46:30.219Z,99688.34
2023-02-17T19:48:57.227Z,99697.09
2023-02-17T19:51:26.482Z,99692.84
2023-02-17T19:53:53.432Z,99705.59
2023-02-17T19:56:26.110Z,99687.16
2023-02-17T19:58:53.893Z,99709.47
2023-02-17T20:01:26.496Z,99670.31
2023-02-17T20:03:54.844Z,99702.84
2023-02-17T20:06:30.265Z,99700.91
2023-02-17T20:09:04.952Z,99687.75
2023-02-17T20:11:32.778Z,99686.88
2023-02-17T20:14:01.166Z,99688.28
2023-02-17T20:16:29.774Z,99682.00
2023-02-17T20:18:56.829Z,99682.91
2023-02-17T20:21:26.197Z,99696.16
2023-02-17T20:23:53.148Z,99670.06
2023-02-17T20:26:23.017Z,99686.81
2023-02-17T20:28:50.309Z,99697.03
2023-02-17T20:31:18.319Z,99689.59
2023-02-17T20:33:45.417Z,99679.84
2023-02-17T20:36:12.597Z,99694.38
2023-02-17T20:38:40.674Z,99671.53
2023-02-17T20:41:09.174Z,99677.56
2023-02-17T20:43:37.623Z,99696.75
2023-02-17T20:46:05.418Z,99684.94
2023-02-17T20:48:32.895Z,99681.97
2023-02-17T20:50:59.829Z,99681.00
2023-02-17T20:53:26.889Z,99662.88
2023-02-17T20:55:53.973Z,99650.09
2023-02-17T20:58:20.930Z,99658.34
2023-02-17T21:00:48.477Z,99624.31
2023-02-17T21:03:15.656Z,99628.31
2023-02-17T21:05:42.593Z,99645.69
2023-02-17T21:08:09.913Z,99670.69
2023-02-17T21:10:37.192Z,99641.31
2023-02-17T21:13:04.140Z,99632.91
2023-02-17T21:15:31.129Z,99659.25
2023-02-17T21:17:58.104Z,99653.91
2023-02-17T21:20:25.098Z,99648.34
2023-02-17T21:22:52.154Z,99646.75
2023-02-17T21:25:19.218Z,99651.03
2023-02-17T21:27:46.204Z,99650.94
2023-02-17T21:30:14.231Z,99625.16
2023-02-17T21:32:41.653Z,99637.19
2023-02-17T21:35:10.264Z,99632.03
2023-02-17T21:37:37.297Z,99633.66
2023-02-17T21:40:06.765Z,99631.56
2023-02-17T21:42:33.680Z,99598.13
2023-02-17T21:45:00.589Z,99626.78
2023-02-17T21:47:27.560Z,99607.97
2023-02-17T21:49:54.891Z,99606.56
2023-02-17T21:52:22.209Z,99604.63
2023-02-17T21:54:49.200Z,99588.03
2023-02-17T21:57:16.218Z,99587.84
2023-02-17T21:59:43.100Z,99591.09
2023-02-17T22:02:13.650Z,99591.66
2023-02-17T22:04:40.609Z,99604.47
2023-02-17T22:07:07.523Z,99591.28
2023-02-17T22:09:34.466Z,99607.72
2023-02-17T22:12:01.368Z,99602.84
2023-02-17T22:14:29.752Z,99596.63
2023-02-17T22:16:56.663Z,99608.00
2023-02-17T22:19:24.795Z,99604.38
2023-02-17T22:21:52.111Z,99597.19
2023-02-17T22:24:19.375Z,99588.25
2023-02-17T22:26:47.105Z,99578.09
2023-02-17T22:29:14.150Z,99617.25
2023-02-17T22:31:41.224Z,99608.66
2023-02-17T22:34:08.683Z,99613.91
2023-02-17T22:36:37.138Z,99590.31
2023-02-17T22:39:06.110Z,99611.03
2023-02-17T22:41:34.431Z,99593.00
2023-02-17T22:44:02.568Z,99569.72
2023-02-17T22:46:29.790Z,99603.88
2023-02-17T22:48:57.823Z,99577.91
2023-02-17T22:51:28.263Z,99602.34
2023-02-17T22:53:55.560Z,99600.06
2023-02-17T22:56:22.934Z,99585.53
2023-02-17T22:58:50.370Z,99582.78
2023-02-17T23:01:20.076Z,99592.25
2023-02-17T23:03:48.330Z,99583.44
2023-02-17T23:06:18.532Z,99573.88
2023-02-17T23:08:46.967Z,99570.69
2023-02-17T23:11:16.792Z,99580.50
2023-02-17T23:13:43.768Z,99563.50
2023-02-17T23:16:11.347Z,99575.72
2023-02-17T23:18:38.324Z,99579.22
2023-02-17T23:21:11.398Z,99566.22
2023-02-17T23:23:39.114Z,99557.97
2023-02-17T23:26:06.819Z,99568.03
2023-02-17T23:28:34.128Z,99566.22
2023-02-17T23:31:01.123Z,99547.56
2023-02-17T23:33:28.375Z,99555.19
2023-02-17T23:35:55.301Z,99574.03
2023-02-17T23:38:22.278Z,99551.09
2023-02-17T23:40:52.665Z,99559.22
2023-02-17T23:43:20.517Z,99548.25
2023-02-17T23:45:47.473Z,99566.75
2023-02-17T23:48:15.010Z,99557.69
2023-02-17T23:50:42.523Z,99555.75
2023-02-17T23:53:09.691Z,99558.88
2023-02-17T23:55:36.666Z,99566.50
2023-02-17T23:58:03.699Z,99550.47
